Time;durP1;ratioP1;P1;durP2;ratioP2;P2;SDS_P1;SDS_P2;PMS_P1;PMS_P2;Temp;Humidity;BMP_temperature;BMP_pressure;BME280_temperature;BME280_humidity;BME280_pressure;Samples;Min_cycle;Max_cycle;Signal;HPM_P1;HPM_P2
2021/01/17 00:00:35;;;;;;;14.07;6.47;;;1.90;99.90;;;;;;5085968;28;20444;-67
2021/01/17 00:03:01;;;;;;;9.53;6.83;;;1.90;99.90;;;;;;5090588;28;20544;-67
2021/01/17 00:05:29;;;;;;;15.17;7.20;;;1.90;99.90;;;;;;5080868;28;20234;-68
2021/01/17 00:07:56;;;;;;;17.83;8.40;;;1.90;99.90;;;;;;5081825;28;20591;-67
2021/01/17 00:10:25;;;;;;;14.00;7.00;;;1.90;99.90;;;;;;5111274;28;20453;-67
2021/01/17 00:12:51;;;;;;;12.30;7.20;;;1.90;99.90;;;;;;5117620;28;20455;-69
2021/01/17 00:15:17;;;;;;;13.60;6.97;;;1.90;99.90;;;;;;5087629;28;20462;-68
2021/01/17 00:17:44;;;;;;;16.60;8.60;;;1.90;99.90;;;;;;5109792;28;20455;-69
2021/01/17 00:20:12;;;;;;;15.93;7.80;;;1.90;99.90;;;;;;5107970;28;20459;-70
2021/01/17 00:22:39;;;;;;;23.97;10.33;;;2.00;99.90;;;;;;5113598;28;20477;-67
2021/01/17 00:25:06;;;;;;;13.83;6.97;;;2.00;99.90;;;;;;5091617;28;20468;-69
2021/01/17 00:27:32;;;;;;;13.30;7.80;;;2.00;99.90;;;;;;5099268;27;20551;-70
2021/01/17 00:29:58;;;;;;;9.83;6.60;;;2.00;99.90;;;;;;5046273;28;20540;-69
2021/01/17 00:32:23;;;;;;;15.60;8.00;;;2.00;99.90;;;;;;5119218;27;20253;-69
2021/01/17 00:34:49;;;;;;;15.93;7.80;;;2.00;99.90;;;;;;5118712;27;20210;-69
2021/01/17 00:37:16;;;;;;;13.87;7.47;;;2.00;99.90;;;;;;5061233;28;20221;-68
2021/01/17 00:39:42;;;;;;;14.40;7.67;;;2.00;99.90;;;;;;5086461;28;20577;-69
2021/01/17 00:42:15;;;;;;;12.53;6.40;;;2.00;99.90;;;;;;5088741;28;20445;-69
2021/01/17 00:44:42;;;;;;;14.53;7.60;;;2.00;99.90;;;;;;5069652;28;20226;-69
2021/01/17 00:47:10;;;;;;;16.20;7.37;;;2.00;99.90;;;;;;5108933;28;20876;-69
2021/01/17 00:49:36;;;;;;;13.60;7.53;;;2.00;99.90;;;;;;5100340;28;20517;-68
2021/01/17 00:52:03;;;;;;;17.80;8.07;;;2.00;99.90;;;;;;5104763;27;20451;-69
2021/01/17 00:54:28;;;;;;;14.70;7.50;;;2.00;99.90;;;;;;5083164;27;20534;-69
2021/01/17 00:56:54;;;;;;;22.97;9.80;;;2.00;99.90;;;;;;5110940;27;20583;-69
2021/01/17 00:59:22;;;;;;;14.83;7.40;;;2.00;99.90;;;;;;5070993;28;20218;-68
2021/01/17 01:01:48;;;;;;;24.27;13.63;;;2.00;99.90;;;;;;5074057;27;20452;-69
2021/01/17 01:04:15;;;;;;;58.37;22.30;;;2.00;99.90;;;;;;5069121;27;20233;-68
2021/01/17 01:06:42;;;;;;;33.40;16.90;;;2.00;99.90;;;;;;5089264;28;20220;-69
2021/01/17 01:09:12;;;;;;;16.83;9.73;;;2.00;99.90;;;;;;5094668;28;21021;-69
2021/01/17 01:11:39;;;;;;;23.80;10.60;;;2.00;99.90;;;;;;5091392;28;20447;-70
2021/01/17 01:14:05;;;;;;;18.40;9.40;;;2.00;99.90;;;;;;5068758;28;20473;-70
2021/01/17 01:16:31;;;;;;;14.90;8.20;;;2.00;99.90;;;;;;5080873;28;20491;-69
2021/01/17 01:18:57;;;;;;;15.70;7.50;;;2.00;99.90;;;;;;5059141;28;20484;-69
2021/01/17 01:21:28;;;;;;;17.70;8.00;;;2.00;99.90;;;;;;5060216;28;20460;-69
2021/01/17 01:23:54;;;;;;;18.73;8.67;;;2.00;99.90;;;;;;5075931;28;20484;-69
2021/01/17 01:26:21;;;;;;;12.03;7.00;;;2.00;99.90;;;;;;5079776;28;21039;-69
2021/01/17 01:28:53;;;;;;;22.23;8.20;;;2.00;99.90;;;;;;5063489;28;20226;-68
2021/01/17 01:31:23;;;;;;;17.07;8.10;;;2.00;99.90;;;;;;5111160;27;20867;-70
2021/01/17 01:33:50;;;;;;;17.13;9.47;;;2.00;99.90;;;;;;5103901;27;20436;-69
2021/01/17 01:36:24;;;;;;;20.60;9.40;;;2.00;99.90;;;;;;5094717;27;20479;-69
2021/01/17 01:38:51;;;;;;;16.67;8.83;;;2.00;99.90;;;;;;5072139;28;20453;-69
2021/01/17 01:41:17;;;;;;;20.83;8.60;;;2.00;99.90;;;;;;5089335;28;20453;-69
2021/01/17 01:43:44;;;;;;;15.10;8.53;;;2.00;99.90;;;;;;5090485;28;20460;-67
2021/01/17 01:46:19;;;;;;;17.47;8.43;;;2.00;99.90;;;;;;5075920;28;20441;-69
2021/01/17 01:48:45;;;;;;;16.10;8.03;;;2.00;99.90;;;;;;5087211;28;20449;-69
2021/01/17 01:51:15;;;;;;;15.10;8.07;;;2.00;99.90;;;;;;5092293;28;20948;-69
2021/01/17 01:53:41;;;;;;;18.30;7.80;;;2.00;99.90;;;;;;5094069;28;20480;-69
2021/01/17 01:56:08;;;;;;;15.17;7.83;;;2.00;99.90;;;;;;5080948;28;20444;-68
2021/01/17 01:58:35;;;;;;;13.33;7.27;;;2.00;99.90;;;;;;5063218;28;20451;-69
2021/01/17 02:01:01;;;;;;;18.60;7.50;;;2.00;99.90;;;;;;5070491;27;20447;-70
2021/01/17 02:03:27;;;;;;;15.57;8.53;;;2.00;99.90;;;;;;5078114;28;20460;-70
2021/01/17 02:05:53;;;;;;;17.63;7.57;;;2.00;99.90;;;;;;5087916;28;20461;-72
2021/01/17 02:08:46;;;;;;;17.97;9.37;;;2.00;99.90;;;;;;5073987;28;20219;-71
2021/01/17 02:12:01;;;;;;;14.13;7.00;;;2.00;99.90;;;;;;5096011;28;20264;-71
2021/01/17 02:14:36;;;;;;;15.50;7.77;;;2.00;99.90;;;;;;5039354;28;20442;-70
2021/01/17 02:17:04;;;;;;;17.07;8.80;;;2.00;99.90;;;;;;5049038;28;20462;-69
2021/01/17 02:19:37;;;;;;;21.63;9.37;;;2.00;99.90;;;;;;5031711;28;21021;-68
2021/01/17 02:22:03;;;;;;;17.70;9.00;;;2.00;99.90;;;;;;5074830;28;20450;-68
2021/01/17 02:24:57;;;;;;;14.67;7.73;;;2.00;99.90;;;;;;5082081;28;20506;-69
2021/01/17 02:27:24;;;;;;;17.70;8.90;;;2.00;99.90;;;;;;5087460;28;20467;-69
2021/01/17 02:29:51;;;;;;;16.57;8.60;;;2.00;99.90;;;;;;5109919;28;20464;-69
2021/01/17 02:32:18;;;;;;;21.70;8.93;;;2.00;99.90;;;;;;5068731;28;20483;-69
2021/01/17 02:34:47;;;;;;;14.60;7.97;;;2.00;99.90;;;;;;5085624;28;20522;-69
2021/01/17 02:37:34;;;;;;;18.53;9.30;;;2.00;99.90;;;;;;5087855;28;20545;-69
2021/01/17 02:40:06;;;;;;;13.67;7.70;;;2.00;99.90;;;;;;5116417;27;20483;-69
2021/01/17 02:42:32;;;;;;;23.90;10.63;;;2.00;99.90;;;;;;5108643;28;20463;-68
2021/01/17 02:44:59;;;;;;;17.53;9.30;;;2.00;99.90;;;;;;5091649;28;20456;-69
2021/01/17 02:47:26;;;;;;;16.77;9.40;;;2.00;99.90;;;;;;5091590;28;20529;-69
2021/01/17 02:49:52;;;;;;;16.67;8.93;;;2.00;99.90;;;;;;5071583;27;20832;-67
2021/01/17 02:52:42;;;;;;;18.40;8.60;;;2.00;99.90;;;;;;5113285;27;20461;-68
2021/01/17 02:55:09;;;;;;;14.00;7.47;;;2.00;99.90;;;;;;5092372;27;20480;-69
2021/01/17 02:57:36;;;;;;;19.13;9.20;;;2.00;99.90;;;;;;5108884;28;20464;-70
2021/01/17 03:00:10;;;;;;;13.03;8.60;;;2.00;99.90;;;;;;5074434;28;20899;-68
2021/01/17 03:02:45;;;;;;;12.70;8.17;;;2.00;99.90;;;;;;5073848;28;20994;-68
2021/01/17 03:05:18;;;;;;;22.80;10.20;;;2.00;99.90;;;;;;5078180;28;20481;-69
2021/01/17 03:07:53;;;;;;;18.23;8.57;;;2.00;99.90;;;;;;5095045;27;20455;-68
2021/01/17 03:10:20;;;;;;;18.20;8.87;;;2.00;99.90;;;;;;5093935;27;20473;-67
2021/01/17 03:12:46;;;;;;;20.57;8.87;;;2.00;99.90;;;;;;5111820;27;20508;-70
2021/01/17 03:15:14;;;;;;;14.77;7.63;;;2.00;99.90;;;;;;5077227;27;20448;-68
2021/01/17 03:17:40;;;;;;;16.03;8.07;;;2.00;99.90;;;;;;5111519;27;21041;-69
2021/01/17 03:20:06;;;;;;;18.47;9.50;;;2.00;99.90;;;;;;5072109;28;20456;-68
2021/01/17 03:22:32;;;;;;;19.33;8.30;;;2.00;99.90;;;;;;5070714;28;20239;-68
2021/01/17 03:24:58;;;;;;;18.30;8.93;;;2.00;99.90;;;;;;5085737;28;20476;-68
2021/01/17 03:27:24;;;;;;;14.53;8.90;;;2.00;99.90;;;;;;5070777;28;20457;-68
2021/01/17 03:29:50;;;;;;;17.77;8.70;;;2.00;99.90;;;;;;5055213;28;20471;-68
2021/01/17 03:32:15;;;;;;;19.30;9.80;;;2.00;99.90;;;;;;5088807;28;20224;-67
2021/01/17 03:34:47;;;;;;;22.10;9.40;;;2.00;99.90;;;;;;5079759;28;20223;-68
2021/01/17 03:37:14;;;;;;;13.50;7.40;;;2.00;99.90;;;;;;5067551;27;20267;-67
2021/01/17 03:39:39;;;;;;;22.30;8.37;;;2.00;99.90;;;;;;5104483;28;20520;-68
2021/01/17 03:42:05;;;;;;;17.43;8.77;;;2.00;99.90;;;;;;5075985;28;20544;-67
2021/01/17 03:44:31;;;;;;;14.40;8.97;;;2.00;99.90;;;;;;5090445;28;20798;-68
2021/01/17 03:46:56;;;;;;;23.20;9.70;;;2.00;99.90;;;;;;5097035;28;20580;-68
2021/01/17 03:49:22;;;;;;;21.57;10.10;;;2.00;99.90;;;;;;5096489;28;20215;-68
2021/01/17 03:51:48;;;;;;;13.60;6.93;;;2.00;99.90;;;;;;5057263;28;20594;-68
2021/01/17 03:54:13;;;;;;;17.53;8.10;;;2.00;99.90;;;;;;5062073;28;20218;-67
2021/01/17 03:56:39;;;;;;;16.33;9.47;;;2.00;99.90;;;;;;5091484;28;20248;-71
2021/01/17 03:59:04;;;;;;;18.33;8.93;;;2.00;99.90;;;;;;5071524;28;20233;-69
2021/01/17 04:01:30;;;;;;;20.17;10.57;;;2.00;99.90;;;;;;5054215;28;20218;-69
2021/01/17 04:03:57;;;;;;;25.10;10.87;;;2.00;99.90;;;;;;5092148;28;20328;-69
2021/01/17 04:06:24;;;;;;;15.50;9.40;;;2.00;99.90;;;;;;5102929;28;20325;-68
2021/01/17 04:08:50;;;;;;;14.27;7.60;;;2.00;99.90;;;;;;5097787;28;20453;-67
2021/01/17 04:11:16;;;;;;;16.87;9.00;;;2.00;99.90;;;;;;5061978;28;20456;-67
2021/01/17 04:13:42;;;;;;;18.27;9.63;;;2.00;99.90;;;;;;5071711;28;20456;-69
2021/01/17 04:16:08;;;;;;;12.93;7.27;;;2.00;99.90;;;;;;5083082;28;20281;-68
2021/01/17 04:18:34;;;;;;;16.27;8.67;;;2.00;99.90;;;;;;5084410;28;20219;-67
2021/01/17 04:21:00;;;;;;;16.67;9.70;;;2.00;99.90;;;;;;5087790;28;20462;-70
2021/01/17 04:23:25;;;;;;;20.07;9.70;;;2.00;99.90;;;;;;5067567;28;20314;-67
2021/01/17 04:25:51;;;;;;;17.30;8.77;;;2.00;99.90;;;;;;5075085;28;20255;-68
2021/01/17 04:28:17;;;;;;;21.80;10.10;;;2.00;99.90;;;;;;5055823;28;20250;-67
2021/01/17 04:30:42;;;;;;;19.47;10.10;;;2.00;99.90;;;;;;5074457;28;20226;-68
2021/01/17 04:33:08;;;;;;;23.20;9.40;;;2.00;99.90;;;;;;5074261;28;20238;-68
2021/01/17 04:35:34;;;;;;;22.17;11.00;;;2.00;99.90;;;;;;5058303;28;20792;-69
2021/01/17 04:38:00;;;;;;;17.30;8.23;;;2.00;99.90;;;;;;5058798;28;20229;-67
2021/01/17 04:40:27;;;;;;;18.50;9.50;;;2.00;99.90;;;;;;5073628;28;20233;-68
2021/01/17 04:43:21;;;;;;;25.17;10.30;;;2.00;99.90;;;;;;5107606;28;20477;-68
2021/01/17 04:45:48;;;;;;;18.43;8.67;;;2.00;99.90;;;;;;5094469;28;20458;-71
2021/01/17 04:48:15;;;;;;;18.00;10.10;;;2.00;99.90;;;;;;5064986;28;20486;-67
2021/01/17 04:50:42;;;;;;;23.43;9.80;;;2.00;99.90;;;;;;5069881;28;20527;-68
2021/01/17 04:53:11;;;;;;;15.27;8.40;;;2.00;99.90;;;;;;5070494;28;20456;-67
2021/01/17 04:55:38;;;;;;;21.03;9.73;;;2.00;99.90;;;;;;5085748;28;20461;-67
2021/01/17 04:58:19;;;;;;;17.07;9.47;;;2.00;99.90;;;;;;5070858;28;20461;-68
2021/01/17 05:00:58;;;;;;;11.53;7.50;;;2.00;99.90;;;;;;5076571;28;20467;-68
2021/01/17 05:03:26;;;;;;;25.77;9.07;;;2.00;99.90;;;;;;5093805;28;20462;-69
2021/01/17 05:06:10;;;;;;;19.50;10.70;;;2.00;99.90;;;;;;5102788;28;20483;-67
2021/01/17 05:08:44;;;;;;;19.93;10.03;;;2.00;99.90;;;;;;5088499;28;20445;-67
2021/01/17 05:11:31;;;;;;;27.10;10.77;;;2.00;99.90;;;;;;5053937;28;20453;-67
2021/01/17 05:14:11;;;;;;;25.50;10.50;;;2.00;99.90;;;;;;5086099;28;20556;-67
2021/01/17 05:16:39;;;;;;;20.33;9.57;;;2.00;99.90;;;;;;5070997;28;20991;-67
2021/01/17 05:19:09;;;;;;;20.07;10.13;;;2.00;99.90;;;;;;5111752;28;20922;-67
2021/01/17 05:21:38;;;;;;;19.53;9.03;;;2.00;99.90;;;;;;5083889;28;20526;-68
2021/01/17 05:24:09;;;;;;;17.97;8.90;;;2.00;99.90;;;;;;5074314;28;20509;-68
2021/01/17 05:26:40;;;;;;;22.13;10.37;;;2.00;99.90;;;;;;5074375;28;20800;-67
2021/01/17 05:29:05;;;;;;;17.27;9.83;;;2.00;99.90;;;;;;5087754;28;20452;-67
2021/01/17 05:31:32;;;;;;;21.23;10.23;;;2.00;99.90;;;;;;5089398;28;20521;-67
2021/01/17 05:33:59;;;;;;;17.90;10.27;;;2.00;99.90;;;;;;5084295;27;20222;-68
2021/01/17 05:36:24;;;;;;;23.53;11.37;;;2.00;99.90;;;;;;5078762;28;20448;-68
2021/01/17 05:39:01;;;;;;;19.60;8.97;;;2.00;99.90;;;;;;5071290;28;20537;-68
2021/01/17 05:41:26;;;;;;;17.67;9.50;;;2.00;99.90;;;;;;5092374;28;20221;-67
2021/01/17 05:43:52;;;;;;;22.53;9.40;;;2.00;99.90;;;;;;5056620;28;20491;-68
2021/01/17 05:46:18;;;;;;;21.07;8.50;;;2.00;99.90;;;;;;5057171;28;20234;-67
2021/01/17 05:48:43;;;;;;;20.57;10.03;;;2.00;99.90;;;;;;5090981;28;20268;-66
2021/01/17 05:51:09;;;;;;;14.90;8.73;;;2.00;99.90;;;;;;5040152;28;20219;-68
2021/01/17 05:53:35;;;;;;;23.87;10.93;;;2.00;99.90;;;;;;5073863;27;20229;-69
2021/01/17 05:56:14;;;;;;;20.83;11.33;;;2.00;99.90;;;;;;5077280;28;20317;-68
2021/01/17 05:58:44;;;;;;;21.33;10.00;;;2.00;99.90;;;;;;5094168;28;20233;-67
2021/01/17 06:01:18;;;;;;;18.33;8.73;;;2.00;99.90;;;;;;5091597;28;20465;-67
2021/01/17 06:03:48;;;;;;;17.53;9.53;;;2.00;99.90;;;;;;5085356;28;20459;-68
2021/01/17 06:06:23;;;;;;;18.90;9.43;;;1.90;99.90;;;;;;5093050;28;20510;-67
2021/01/17 06:08:52;;;;;;;21.03;10.27;;;2.00;99.90;;;;;;5077360;28;21034;-68
2021/01/17 06:11:20;;;;;;;19.50;10.47;;;2.00;99.90;;;;;;5089535;28;20447;-67
2021/01/17 06:13:56;;;;;;;17.37;7.93;;;2.00;99.90;;;;;;5078037;27;20452;-67
2021/01/17 06:16:33;;;;;;;16.20;8.63;;;2.00;99.90;;;;;;5077530;27;21003;-68
2021/01/17 06:19:02;;;;;;;15.93;7.57;;;2.00;99.90;;;;;;5127012;27;20459;-68
2021/01/17 06:21:30;;;;;;;18.70;9.43;;;2.00;99.90;;;;;;5055441;28;20506;-69
2021/01/17 06:23:58;;;;;;;25.00;9.70;;;2.00;99.90;;;;;;5101607;28;20798;-69
2021/01/17 06:26:26;;;;;;;18.90;8.67;;;1.90;99.90;;;;;;5073481;28;20445;-68
2021/01/17 06:28:52;;;;;;;16.07;8.67;;;2.00;99.90;;;;;;5058792;28;20461;-68
2021/01/17 06:31:22;;;;;;;16.30;8.40;;;2.00;99.90;;;;;;5072818;28;20457;-67
2021/01/17 06:33:49;;;;;;;19.13;7.67;;;2.00;99.90;;;;;;5073217;28;20456;-68
2021/01/17 06:36:16;;;;;;;21.50;7.93;;;2.00;99.90;;;;;;5052857;28;20453;-67
2021/01/17 06:38:43;;;;;;;19.03;9.87;;;2.00;99.90;;;;;;5092406;28;20459;-67
2021/01/17 06:41:10;;;;;;;17.37;9.17;;;2.00;99.90;;;;;;5109203;28;21030;-67
2021/01/17 06:43:43;;;;;;;21.50;11.13;;;1.90;99.90;;;;;;5073452;28;20452;-68
2021/01/17 06:46:10;;;;;;;16.83;9.73;;;1.90;99.90;;;;;;5075188;28;20833;-68
2021/01/17 06:48:35;;;;;;;20.77;9.70;;;2.00;99.90;;;;;;5086424;28;20975;-68
2021/01/17 06:51:20;;;;;;;14.90;8.47;;;2.00;99.90;;;;;;5053050;28;20456;-68
2021/01/17 06:53:54;;;;;;;15.07;8.20;;;2.00;99.90;;;;;;5090444;28;20703;-67
2021/01/17 06:56:20;;;;;;;20.37;9.80;;;2.00;99.90;;;;;;5070842;27;20515;-67
2021/01/17 06:58:47;;;;;;;18.27;10.20;;;2.00;99.90;;;;;;5078822;28;20981;-69
2021/01/17 07:01:14;;;;;;;15.63;9.17;;;2.00;99.90;;;;;;5076447;27;20766;-68
2021/01/17 07:04:08;;;;;;;18.53;9.00;;;2.00;99.90;;;;;;5096785;27;20510;-67
2021/01/17 07:06:46;;;;;;;18.20;10.97;;;2.00;99.90;;;;;;5096013;28;20465;-69
2021/01/17 07:09:31;;;;;;;20.03;10.17;;;2.00;99.90;;;;;;5072140;28;20461;-69
2021/01/17 07:12:06;;;;;;;20.83;11.90;;;2.00;99.90;;;;;;5095399;27;20452;-68
2021/01/17 07:14:39;;;;;;;16.10;10.00;;;2.00;99.90;;;;;;5098918;28;20456;-69
2021/01/17 07:17:08;;;;;;;20.90;10.83;;;2.00;99.90;;;;;;5089434;28;20471;-69
2021/01/17 07:19:34;;;;;;;21.67;10.97;;;2.00;99.90;;;;;;5077123;27;20452;-67
2021/01/17 07:22:04;;;;;;;17.50;9.50;;;2.00;99.90;;;;;;5088826;28;20450;-68
2021/01/17 07:24:31;;;;;;;17.20;10.00;;;2.00;99.90;;;;;;5084073;27;20226;-68
2021/01/17 07:27:28;;;;;;;24.37;10.40;;;2.00;99.90;;;;;;5048723;28;20468;-68
2021/01/17 07:29:59;;;;;;;19.90;9.50;;;2.00;99.90;;;;;;5110133;28;20463;-69
2021/01/17 07:32:35;;;;;;;17.27;9.33;;;2.00;99.90;;;;;;5084943;28;20444;-68
2021/01/17 07:35:11;;;;;;;18.07;9.47;;;2.00;99.90;;;;;;5077976;28;20464;-70
2021/01/17 07:37:42;;;;;;;20.60;10.27;;;2.00;99.90;;;;;;5081760;28;20455;-67
2021/01/17 07:40:09;;;;;;;23.03;10.87;;;2.00;99.90;;;;;;5088017;28;20453;-67
2021/01/17 07:42:37;;;;;;;19.97;9.90;;;2.00;99.90;;;;;;5118187;27;20505;-67
2021/01/17 07:45:20;;;;;;;22.77;11.00;;;2.00;99.90;;;;;;5076030;27;20542;-67
2021/01/17 07:47:46;;;;;;;21.30;9.63;;;2.00;99.90;;;;;;5109544;27;20822;-68
2021/01/17 07:50:13;;;;;;;18.30;9.20;;;2.00;99.90;;;;;;5101238;28;20441;-68
2021/01/17 07:52:52;;;;;;;24.97;11.00;;;2.00;99.90;;;;;;5071412;28;20447;-68
2021/01/17 07:55:20;;;;;;;21.30;10.97;;;2.00;99.90;;;;;;5083312;28;20453;-68
2021/01/17 07:57:50;;;;;;;24.27;10.33;;;2.00;99.90;;;;;;5069541;28;20463;-69
2021/01/17 08:00:16;;;;;;;14.87;8.77;;;2.00;99.90;;;;;;5082135;28;20449;-68
2021/01/17 08:02:49;;;;;;;21.03;10.37;;;2.00;99.90;;;;;;5077437;28;20526;-69
2021/01/17 08:05:14;;;;;;;15.63;10.03;;;2.10;99.90;;;;;;5106352;28;20459;-68
2021/01/17 08:07:40;;;;;;;18.87;9.57;;;2.10;99.90;;;;;;5050182;28;20448;-68
2021/01/17 08:10:07;;;;;;;20.27;12.17;;;2.00;99.90;;;;;;5088118;28;20687;-67
2021/01/17 08:12:40;;;;;;;17.90;10.03;;;2.10;99.90;;;;;;5069788;28;20237;-69
2021/01/17 08:15:22;;;;;;;21.43;9.87;;;2.10;99.90;;;;;;5091410;28;20455;-69
2021/01/17 08:17:48;;;;;;;18.93;10.27;;;2.10;99.90;;;;;;5062884;28;20874;-67
2021/01/17 08:20:24;;;;;;;17.57;9.23;;;2.10;99.90;;;;;;5107554;28;20461;-68
2021/01/17 08:23:01;;;;;;;17.57;10.17;;;2.10;99.90;;;;;;5086942;28;20451;-67
2021/01/17 08:25:55;;;;;;;22.67;11.63;;;2.10;99.90;;;;;;5074685;28;20439;-68
2021/01/17 08:28:36;;;;;;;21.90;12.00;;;2.10;99.90;;;;;;5071147;28;20814;-68
2021/01/17 08:31:22;;;;;;;23.57;11.37;;;2.10;99.90;;;;;;5090500;28;20460;-68
2021/01/17 08:33:48;;;;;;;17.47;8.53;;;2.10;99.90;;;;;;5099591;28;20462;-69
2021/01/17 08:36:28;;;;;;;26.03;11.73;;;2.10;99.90;;;;;;5091908;28;20453;-69
2021/01/17 08:38:54;;;;;;;22.50;11.27;;;2.10;99.90;;;;;;5086860;28;20226;-68
2021/01/17 08:41:27;;;;;;;19.50;9.67;;;2.10;99.90;;;;;;5090059;28;20455;-68
2021/01/17 08:43:55;;;;;;;26.80;11.87;;;2.10;99.90;;;;;;5089208;28;20272;-67
2021/01/17 08:46:38;;;;;;;22.60;11.40;;;2.10;99.90;;;;;;5056416;28;21040;-68
2021/01/17 08:49:05;;;;;;;22.30;11.43;;;2.10;99.90;;;;;;5093950;28;20467;-69
2021/01/17 08:51:31;;;;;;;21.50;10.53;;;2.10;99.90;;;;;;5068718;28;20457;-67
2021/01/17 08:54:20;;;;;;;26.97;13.60;;;2.10;99.90;;;;;;5073788;28;20458;-69
2021/01/17 08:56:45;;;;;;;27.97;13.27;;;2.10;99.90;;;;;;5076905;28;20823;-67
2021/01/17 08:59:32;;;;;;;22.00;12.80;;;2.10;99.90;;;;;;5077179;28;20456;-68
2021/01/17 09:01:59;;;;;;;17.90;9.93;;;2.10;99.90;;;;;;5074580;27;20230;-67
2021/01/17 09:04:27;;;;;;;26.33;13.60;;;2.10;99.90;;;;;;5071766;28;20464;-67
2021/01/17 09:06:53;;;;;;;22.13;10.00;;;2.10;99.90;;;;;;5063553;28;20464;-67
2021/01/17 09:09:19;;;;;;;20.10;10.07;;;2.10;99.90;;;;;;5101065;28;20471;-67
2021/01/17 09:11:45;;;;;;;19.23;9.23;;;2.10;99.90;;;;;;5111067;27;20244;-68
2021/01/17 09:14:12;;;;;;;23.77;10.43;;;2.10;99.90;;;;;;5110963;27;20478;-69
2021/01/17 09:17:01;;;;;;;25.23;11.13;;;2.10;99.90;;;;;;5078446;28;20252;-68
2021/01/17 09:19:31;;;;;;;20.63;10.87;;;2.10;99.90;;;;;;5110850;27;20435;-68
2021/01/17 09:21:59;;;;;;;19.57;9.00;;;2.10;99.90;;;;;;5112002;27;20451;-69
2021/01/17 09:24:27;;;;;;;20.57;9.63;;;2.10;99.90;;;;;;5071161;28;20456;-68
2021/01/17 09:26:58;;;;;;;25.37;10.50;;;2.10;99.90;;;;;;5087935;28;20548;-69
2021/01/17 09:29:31;;;;;;;22.67;10.90;;;2.10;99.90;;;;;;5063298;28;20932;-68
2021/01/17 09:32:00;;;;;;;21.37;11.33;;;2.10;99.90;;;;;;5076764;28;20471;-70
2021/01/17 09:34:29;;;;;;;24.50;12.80;;;2.20;99.90;;;;;;5101419;27;20447;-67
2021/01/17 09:36:56;;;;;;;28.00;13.90;;;2.20;99.90;;;;;;5091627;27;20452;-68
2021/01/17 09:39:30;;;;;;;23.57;11.17;;;2.20;99.90;;;;;;5074035;27;20449;-69
2021/01/17 09:41:57;;;;;;;20.57;10.87;;;2.10;99.90;;;;;;5083904;27;20975;-70
2021/01/17 09:44:23;;;;;;;22.57;11.83;;;2.20;99.90;;;;;;5088678;28;20468;-67
2021/01/17 09:46:48;;;;;;;24.67;12.30;;;2.20;99.90;;;;;;5094534;28;20456;-67
2021/01/17 09:49:14;;;;;;;21.97;11.20;;;2.20;99.90;;;;;;5080143;28;20224;-68
2021/01/17 09:51:47;;;;;;;22.70;9.60;;;2.20;99.90;;;;;;5114732;27;20253;-68
2021/01/17 09:54:13;;;;;;;20.57;10.17;;;2.20;99.90;;;;;;5114481;27;20236;-68
2021/01/17 09:56:43;;;;;;;18.43;9.70;;;2.20;99.90;;;;;;5096614;27;20471;-69
2021/01/17 09:59:17;;;;;;;24.50;9.87;;;2.20;99.90;;;;;;5104607;27;20539;-68
2021/01/17 10:01:45;;;;;;;19.03;10.03;;;2.20;99.90;;;;;;5114130;27;20438;-67
2021/01/17 10:04:25;;;;;;;21.80;11.33;;;2.20;99.90;;;;;;5079706;27;20479;-68
2021/01/17 10:06:51;;;;;;;15.63;8.80;;;2.20;99.90;;;;;;5100387;28;20452;-67
2021/01/17 10:09:19;;;;;;;23.93;11.07;;;2.20;99.90;;;;;;5093717;28;20463;-71
2021/01/17 10:11:45;;;;;;;23.30;10.53;;;2.20;99.90;;;;;;5094318;28;20460;-70
2021/01/17 10:14:21;;;;;;;19.13;8.90;;;2.20;99.90;;;;;;5078645;27;20467;-70
2021/01/17 10:16:51;;;;;;;14.10;8.47;;;2.20;99.90;;;;;;5102385;27;20557;-69
2021/01/17 10:19:26;;;;;;;17.47;8.73;;;2.20;99.90;;;;;;5093235;28;20516;-69
2021/01/17 10:21:52;;;;;;;14.53;8.80;;;2.20;99.90;;;;;;5094090;28;20489;-70
2021/01/17 10:24:22;;;;;;;15.93;7.57;;;2.20;99.90;;;;;;5086156;28;20521;-69
2021/01/17 10:26:51;;;;;;;29.63;14.87;;;2.30;99.90;;;;;;5100941;27;20252;-70
2021/01/17 10:29:19;;;;;;;29.13;15.20;;;2.20;99.90;;;;;;5072359;28;20495;-68
2021/01/17 10:31:49;;;;;;;34.47;14.87;;;2.20;99.90;;;;;;5066663;28;20479;-70
2021/01/17 10:34:30;;;;;;;28.87;15.37;;;2.20;99.90;;;;;;5048486;28;20466;-69
2021/01/17 10:36:58;;;;;;;25.73;12.63;;;2.20;99.90;;;;;;5076817;28;20574;-69
2021/01/17 10:39:24;;;;;;;27.80;14.50;;;2.20;99.90;;;;;;5070422;28;20525;-70
2021/01/17 10:41:53;;;;;;;21.50;12.37;;;2.20;99.90;;;;;;5106729;28;20464;-69
2021/01/17 10:44:25;;;;;;;23.90;13.00;;;2.20;99.90;;;;;;5058717;28;20532;-69
2021/01/17 10:47:04;;;;;;;23.70;11.50;;;2.20;99.90;;;;;;5091884;28;20452;-70
2021/01/17 10:49:33;;;;;;;19.70;10.17;;;2.20;99.90;;;;;;5112530;27;20444;-70
2021/01/17 10:52:08;;;;;;;25.37;9.97;;;2.30;99.90;;;;;;5125961;27;20479;-69
2021/01/17 10:54:35;;;;;;;31.90;11.57;;;2.30;99.90;;;;;;5084441;28;20453;-70
2021/01/17 10:57:05;;;;;;;24.60;11.37;;;2.30;99.90;;;;;;5074823;28;20551;-69
2021/01/17 10:59:33;;;;;;;44.27;19.97;;;2.30;99.90;;;;;;5091417;28;20464;-69
2021/01/17 11:01:58;;;;;;;39.47;16.37;;;2.30;99.90;;;;;;5074494;28;20472;-67
2021/01/17 11:04:24;;;;;;;49.70;22.70;;;2.30;99.90;;;;;;5057669;28;20472;-69
2021/01/17 11:06:57;;;;;;;43.77;19.90;;;2.30;99.90;;;;;;5074801;28;20230;-69
2021/01/17 11:09:24;;;;;;;31.23;15.20;;;2.30;99.90;;;;;;5071113;28;20341;-70
2021/01/17 11:11:52;;;;;;;33.30;13.67;;;2.30;99.90;;;;;;5062138;28;20451;-68
2021/01/17 11:14:31;;;;;;;25.90;13.30;;;2.30;99.90;;;;;;5073142;28;20513;-68
2021/01/17 11:16:58;;;;;;;21.20;10.73;;;2.40;99.90;;;;;;5072080;28;21001;-68
2021/01/17 11:19:38;;;;;;;18.70;10.07;;;2.30;99.90;;;;;;5071229;28;20446;-68
2021/01/17 11:22:06;;;;;;;21.70;9.70;;;2.40;99.90;;;;;;5089204;27;20983;-69
2021/01/17 11:24:40;;;;;;;20.33;11.20;;;2.40;99.90;;;;;;5075559;27;20528;-69
2021/01/17 11:27:13;;;;;;;19.43;10.20;;;2.40;99.90;;;;;;5090229;27;20460;-70
2021/01/17 11:29:43;;;;;;;22.73;11.37;;;2.40;99.90;;;;;;5103430;28;20528;-69
2021/01/17 11:32:10;;;;;;;26.93;11.53;;;2.40;99.90;;;;;;5084479;27;20451;-70
2021/01/17 11:34:41;;;;;;;19.57;10.67;;;2.40;99.90;;;;;;5104446;28;20874;-69
2021/01/17 11:37:08;;;;;;;20.47;10.47;;;2.40;99.90;;;;;;5089344;28;20509;-68
2021/01/17 11:39:34;;;;;;;20.20;9.10;;;2.40;99.90;;;;;;5071205;28;20463;-68
2021/01/17 11:42:00;;;;;;;18.80;9.23;;;2.40;99.90;;;;;;5089188;28;20558;-68
2021/01/17 11:44:34;;;;;;;29.67;14.97;;;2.40;99.90;;;;;;5070856;28;20456;-69
2021/01/17 11:47:01;;;;;;;65.53;30.37;;;2.40;99.90;;;;;;5103356;28;20464;-68
2021/01/17 11:49:29;;;;;;;64.00;28.83;;;2.50;99.90;;;;;;5079085;28;20987;-69
2021/01/17 11:51:57;;;;;;;38.30;20.20;;;2.40;99.90;;;;;;5079481;27;20468;-69
2021/01/17 11:54:26;;;;;;;36.70;20.20;;;2.50;99.90;;;;;;5085087;28;20495;-69
2021/01/17 11:57:03;;;;;;;37.97;20.70;;;2.50;99.90;;;;;;5092850;28;20571;-68
2021/01/17 11:59:33;;;;;;;36.47;16.03;;;2.50;99.90;;;;;;5074109;28;20529;-68
2021/01/17 12:02:18;;;;;;;26.30;13.57;;;2.40;99.90;;;;;;5091614;28;20534;-67
2021/01/17 12:04:46;;;;;;;30.27;14.17;;;2.50;99.90;;;;;;5093132;28;20460;-68
2021/01/17 12:07:12;;;;;;;31.03;12.57;;;2.50;99.90;;;;;;5091952;28;20452;-68
2021/01/17 12:09:39;;;;;;;24.80;11.13;;;2.50;99.90;;;;;;5093361;28;20444;-69
2021/01/17 12:12:13;;;;;;;23.90;12.53;;;2.50;99.90;;;;;;5090631;28;20947;-69
2021/01/17 12:14:39;;;;;;;21.23;11.43;;;2.50;99.90;;;;;;5093722;28;21135;-70
2021/01/17 12:17:06;;;;;;;26.73;12.77;;;2.50;99.90;;;;;;5057496;28;20534;-69
2021/01/17 12:19:31;;;;;;;24.27;12.43;;;2.50;99.90;;;;;;5085549;28;20213;-70
2021/01/17 12:22:00;;;;;;;22.47;12.80;;;2.50;99.90;;;;;;5075240;27;20582;-70
2021/01/17 12:24:26;;;;;;;22.63;12.57;;;2.50;99.90;;;;;;5078500;28;20220;-70
2021/01/17 12:26:53;;;;;;;24.10;11.90;;;2.50;99.90;;;;;;5086292;28;20531;-69
2021/01/17 12:29:19;;;;;;;36.33;23.40;;;2.50;99.90;;;;;;5092638;28;20554;-68
2021/01/17 12:31:46;;;;;;;32.90;19.80;;;2.50;99.90;;;;;;5088756;28;20896;-69
2021/01/17 12:34:12;;;;;;;26.07;15.43;;;2.60;99.90;;;;;;5091976;28;21525;-68
2021/01/17 12:36:39;;;;;;;24.70;12.90;;;2.60;99.90;;;;;;5096796;27;20456;-69
2021/01/17 12:39:07;;;;;;;25.50;12.30;;;2.50;99.90;;;;;;5072221;28;20468;-71
2021/01/17 12:41:35;;;;;;;20.50;11.30;;;2.50;99.90;;;;;;5075562;27;20452;-69
2021/01/17 12:44:02;;;;;;;23.70;11.37;;;2.60;99.90;;;;;;5089031;28;20471;-67
2021/01/17 12:46:28;;;;;;;25.90;11.47;;;2.60;99.90;;;;;;5071132;28;20438;-69
2021/01/17 12:48:55;;;;;;;21.63;10.90;;;2.60;99.90;;;;;;5086621;27;20507;-69
2021/01/17 12:51:21;;;;;;;17.73;9.77;;;2.60;99.90;;;;;;5102420;28;20456;-70
2021/01/17 12:53:48;;;;;;;23.00;10.63;;;2.60;99.90;;;;;;5111343;28;20457;-69
2021/01/17 12:56:15;;;;;;;20.13;10.10;;;2.60;99.90;;;;;;5115109;27;20460;-69